sensor_id;sensor_type;location;lat;lon;timestamp;P1;durP1;ratioP1;P2;durP2;ratioP2
5674;SDS011;2860;54.284;10.158;2024-02-14T00:02:25;37.83;;;19.35;;
5674;SDS011;2860;54.284;10.158;2024-02-14T00:04:52;36.33;;;17.85;;
5674;SDS011;2860;54.284;10.158;2024-02-14T00:07:18;27.52;;;17.75;;
5674;SDS011;2860;54.284;10.158;2024-02-14T00:09:44;26.15;;;17.38;;
5674;SDS011;2860;54.284;10.158;2024-02-14T00:12:09;26.05;;;17.67;;
5674;SDS011;2860;54.284;10.158;2024-02-14T00:14:36;25.15;;;17.27;;
5674;SDS011;2860;54.284;10.158;2024-02-14T00:17:02;31.25;;;17.50;;
5674;SDS011;2860;54.284;10.158;2024-02-14T00:19:28;27.35;;;17.60;;
5674;SDS011;2860;54.284;10.158;2024-02-14T00:21:54;24.90;;;18.30;;
5674;SDS011;2860;54.284;10.158;2024-02-14T00:24:19;23.85;;;18.35;;
5674;SDS011;2860;54.284;10.158;2024-02-14T00:26:45;31.58;;;18.02;;
5674;SDS011;2860;54.284;10.158;2024-02-14T00:29:11;32.40;;;18.10;;
5674;SDS011;2860;54.284;10.158;2024-02-14T00:31:36;26.83;;;17.15;;
5674;SDS011;2860;54.284;10.158;2024-02-14T00:34:02;39.22;;;18.20;;
5674;SDS011;2860;54.284;10.158;2024-02-14T00:36:28;20.80;;;17.05;;
5674;SDS011;2860;54.284;10.158;2024-02-14T00:38:53;29.25;;;16.88;;
5674;SDS011;2860;54.284;10.158;2024-02-14T00:41:19;27.40;;;18.10;;
5674;SDS011;2860;54.284;10.158;2024-02-14T00:43:44;32.65;;;18.00;;
5674;SDS011;2860;54.284;10.158;2024-02-14T00:46:15;29.65;;;19.17;;
5674;SDS011;2860;54.284;10.158;2024-02-14T00:48:41;28.50;;;19.33;;
5674;SDS011;2860;54.284;10.158;2024-02-14T00:51:07;28.15;;;18.33;;
5674;SDS011;2860;54.284;10.158;2024-02-14T00:53:33;29.35;;;19.92;;
5674;SDS011;2860;54.284;10.158;2024-02-14T00:55:58;30.67;;;19.13;;
5674;SDS011;2860;54.284;10.158;2024-02-14T00:58:24;33.88;;;20.80;;
5674;SDS011;2860;54.284;10.158;2024-02-14T01:00:49;36.72;;;20.52;;
5674;SDS011;2860;54.284;10.158;2024-02-14T01:03:14;39.58;;;20.15;;
5674;SDS011;2860;54.284;10.158;2024-02-14T01:05:41;30.02;;;20.27;;
5674;SDS011;2860;54.284;10.158;2024-02-14T01:08:07;31.83;;;20.98;;
5674;SDS011;2860;54.284;10.158;2024-02-14T01:10:33;40.38;;;21.63;;
5674;SDS011;2860;54.284;10.158;2024-02-14T01:12:58;30.77;;;19.17;;
5674;SDS011;2860;54.284;10.158;2024-02-14T01:15:24;36.97;;;20.40;;
5674;SDS011;2860;54.284;10.158;2024-02-14T01:17:49;37.50;;;21.40;;
5674;SDS011;2860;54.284;10.158;2024-02-14T01:20:15;33.88;;;20.30;;
5674;SDS011;2860;54.284;10.158;2024-02-14T01:22:40;26.92;;;18.02;;
5674;SDS011;2860;54.284;10.158;2024-02-14T01:25:06;29.75;;;18.23;;
5674;SDS011;2860;54.284;10.158;2024-02-14T01:27:32;28.70;;;18.33;;
5674;SDS011;2860;54.284;10.158;2024-02-14T01:29:57;30.27;;;18.35;;
5674;SDS011;2860;54.284;10.158;2024-02-14T01:32:23;31.70;;;17.63;;
5674;SDS011;2860;54.284;10.158;2024-02-14T01:34:48;30.25;;;18.63;;
5674;SDS011;2860;54.284;10.158;2024-02-14T01:37:14;35.17;;;18.73;;
5674;SDS011;2860;54.284;10.158;2024-02-14T01:39:39;32.25;;;18.38;;
5674;SDS011;2860;54.284;10.158;2024-02-14T01:42:05;26.80;;;18.00;;
5674;SDS011;2860;54.284;10.158;2024-02-14T01:44:32;34.15;;;17.98;;
5674;SDS011;2860;54.284;10.158;2024-02-14T01:46:58;26.25;;;18.13;;
5674;SDS011;2860;54.284;10.158;2024-02-14T01:49:25;25.17;;;17.02;;
5674;SDS011;2860;54.284;10.158;2024-02-14T01:51:53;25.15;;;18.77;;
5674;SDS011;2860;54.284;10.158;2024-02-14T01:54:21;23.55;;;16.75;;
5674;SDS011;2860;54.284;10.158;2024-02-14T01:56:46;23.02;;;16.55;;
5674;SDS011;2860;54.284;10.158;2024-02-14T01:59:13;25.40;;;15.85;;
5674;SDS011;2860;54.284;10.158;2024-02-14T02:01:40;24.92;;;17.17;;
5674;SDS011;2860;54.284;10.158;2024-02-14T02:04:06;27.80;;;16.80;;
5674;SDS011;2860;54.284;10.158;2024-02-14T02:06:32;22.10;;;16.35;;
5674;SDS011;2860;54.284;10.158;2024-02-14T02:08:57;19.98;;;14.88;;
5674;SDS011;2860;54.284;10.158;2024-02-14T02:11:24;22.50;;;15.77;;
5674;SDS011;2860;54.284;10.158;2024-02-14T02:13:50;23.20;;;14.52;;
5674;SDS011;2860;54.284;10.158;2024-02-14T02:16:15;21.65;;;14.60;;
5674;SDS011;2860;54.284;10.158;2024-02-14T02:18:41;28.25;;;13.77;;
5674;SDS011;2860;54.284;10.158;2024-02-14T02:21:07;19.17;;;14.40;;
5674;SDS011;2860;54.284;10.158;2024-02-14T02:23:44;24.17;;;13.63;;
5674;SDS011;2860;54.284;10.158;2024-02-14T02:26:10;18.13;;;13.70;;
5674;SDS011;2860;54.284;10.158;2024-02-14T02:28:36;16.40;;;13.63;;
5674;SDS011;2860;54.284;10.158;2024-02-14T02:31:04;15.00;;;12.52;;
5674;SDS011;2860;54.284;10.158;2024-02-14T02:33:30;18.92;;;12.63;;
5674;SDS011;2860;54.284;10.158;2024-02-14T02:38:41;16.20;;;12.27;;
5674;SDS011;2860;54.284;10.158;2024-02-14T02:41:06;22.75;;;12.45;;
5674;SDS011;2860;54.284;10.158;2024-02-14T02:43:32;16.10;;;11.25;;
5674;SDS011;2860;54.284;10.158;2024-02-14T02:45:58;17.75;;;11.85;;
5674;SDS011;2860;54.284;10.158;2024-02-14T02:48:24;14.13;;;11.57;;
5674;SDS011;2860;54.284;10.158;2024-02-14T02:50:49;14.15;;;10.45;;
5674;SDS011;2860;54.284;10.158;2024-02-14T02:53:16;18.80;;;11.32;;
5674;SDS011;2860;54.284;10.158;2024-02-14T02:55:41;17.17;;;11.60;;
5674;SDS011;2860;54.284;10.158;2024-02-14T02:58:08;15.63;;;10.63;;
5674;SDS011;2860;54.284;10.158;2024-02-14T03:00:33;16.45;;;10.80;;
5674;SDS011;2860;54.284;10.158;2024-02-14T03:02:59;14.77;;;10.75;;
5674;SDS011;2860;54.284;10.158;2024-02-14T03:05:24;20.40;;;12.27;;
5674;SDS011;2860;54.284;10.158;2024-02-14T03:07:50;12.20;;;10.32;;
5674;SDS011;2860;54.284;10.158;2024-02-14T03:10:17;17.75;;;10.90;;
5674;SDS011;2860;54.284;10.158;2024-02-14T03:12:49;15.10;;;10.55;;
5674;SDS011;2860;54.284;10.158;2024-02-14T03:15:15;11.48;;;10.23;;
5674;SDS011;2860;54.284;10.158;2024-02-14T03:17:41;13.88;;;10.63;;
5674;SDS011;2860;54.284;10.158;2024-02-14T03:20:07;16.63;;;11.48;;
5674;SDS011;2860;54.284;10.158;2024-02-14T03:22:40;13.32;;;11.75;;
5674;SDS011;2860;54.284;10.158;2024-02-14T03:25:12;15.77;;;10.55;;
5674;SDS011;2860;54.284;10.158;2024-02-14T03:27:41;23.30;;;11.50;;
5674;SDS011;2860;54.284;10.158;2024-02-14T03:30:07;14.07;;;11.25;;
5674;SDS011;2860;54.284;10.158;2024-02-14T03:32:33;14.02;;;12.13;;
5674;SDS011;2860;54.284;10.158;2024-02-14T03:34:58;19.55;;;12.85;;
5674;SDS011;2860;54.284;10.158;2024-02-14T03:37:25;13.50;;;12.18;;
5674;SDS011;2860;54.284;10.158;2024-02-14T03:39:51;15.82;;;12.32;;
5674;SDS011;2860;54.284;10.158;2024-02-14T03:42:17;12.93;;;11.73;;
5674;SDS011;2860;54.284;10.158;2024-02-14T03:44:43;25.23;;;12.82;;
5674;SDS011;2860;54.284;10.158;2024-02-14T03:47:08;13.88;;;12.43;;
5674;SDS011;2860;54.284;10.158;2024-02-14T03:49:34;18.63;;;13.63;;
5674;SDS011;2860;54.284;10.158;2024-02-14T03:51:59;17.85;;;12.50;;
5674;SDS011;2860;54.284;10.158;2024-02-14T03:54:26;18.45;;;12.65;;
5674;SDS011;2860;54.284;10.158;2024-02-14T03:56:52;15.73;;;13.75;;
5674;SDS011;2860;54.284;10.158;2024-02-14T03:59:17;23.92;;;14.50;;
5674;SDS011;2860;54.284;10.158;2024-02-14T04:01:49;20.90;;;13.77;;
5674;SDS011;2860;54.284;10.158;2024-02-14T04:04:15;15.57;;;13.15;;
5674;SDS011;2860;54.284;10.158;2024-02-14T04:06:41;19.17;;;14.15;;
5674;SDS011;2860;54.284;10.158;2024-02-14T04:09:07;20.20;;;14.45;;
5674;SDS011;2860;54.284;10.158;2024-02-14T04:11:33;18.48;;;13.40;;
5674;SDS011;2860;54.284;10.158;2024-02-14T04:13:58;18.20;;;13.48;;
5674;SDS011;2860;54.284;10.158;2024-02-14T04:16:24;17.85;;;14.32;;
5674;SDS011;2860;54.284;10.158;2024-02-14T04:18:49;18.98;;;14.48;;
5674;SDS011;2860;54.284;10.158;2024-02-14T04:21:15;15.13;;;13.63;;
5674;SDS011;2860;54.284;10.158;2024-02-14T04:23:41;14.50;;;12.48;;
5674;SDS011;2860;54.284;10.158;2024-02-14T04:26:06;15.88;;;13.25;;
5674;SDS011;2860;54.284;10.158;2024-02-14T04:28:33;18.38;;;14.00;;
5674;SDS011;2860;54.284;10.158;2024-02-14T04:30:58;24.17;;;14.27;;
5674;SDS011;2860;54.284;10.158;2024-02-14T04:33:24;17.45;;;13.95;;
5674;SDS011;2860;54.284;10.158;2024-02-14T04:35:50;17.33;;;14.35;;
5674;SDS011;2860;54.284;10.158;2024-02-14T04:38:16;21.38;;;14.77;;
5674;SDS011;2860;54.284;10.158;2024-02-14T04:40:43;22.52;;;14.23;;
5674;SDS011;2860;54.284;10.158;2024-02-14T04:43:09;24.83;;;13.88;;
5674;SDS011;2860;54.284;10.158;2024-02-14T04:45:35;18.42;;;14.45;;
5674;SDS011;2860;54.284;10.158;2024-02-14T04:48:00;25.65;;;14.23;;
5674;SDS011;2860;54.284;10.158;2024-02-14T04:50:26;20.40;;;14.20;;
5674;SDS011;2860;54.284;10.158;2024-02-14T04:52:52;14.90;;;13.13;;
5674;SDS011;2860;54.284;10.158;2024-02-14T04:55:17;16.85;;;14.23;;
5674;SDS011;2860;54.284;10.158;2024-02-14T04:57:43;17.40;;;13.98;;
5674;SDS011;2860;54.284;10.158;2024-02-14T05:00:09;21.75;;;14.45;;
5674;SDS011;2860;54.284;10.158;2024-02-14T05:02:35;25.80;;;16.63;;
5674;SDS011;2860;54.284;10.158;2024-02-14T05:05:02;16.00;;;13.98;;
5674;SDS011;2860;54.284;10.158;2024-02-14T05:07:28;23.27;;;13.70;;
5674;SDS011;2860;54.284;10.158;2024-02-14T05:09:53;18.33;;;14.45;;
5674;SDS011;2860;54.284;10.158;2024-02-14T05:12:21;19.65;;;13.52;;
5674;SDS011;2860;54.284;10.158;2024-02-14T05:14:47;18.55;;;14.30;;
5674;SDS011;2860;54.284;10.158;2024-02-14T05:17:13;16.65;;;14.50;;
5674;SDS011;2860;54.284;10.158;2024-02-14T05:19:41;18.23;;;14.05;;
5674;SDS011;2860;54.284;10.158;2024-02-14T05:22:07;17.30;;;13.30;;
5674;SDS011;2860;54.284;10.158;2024-02-14T05:24:32;19.00;;;14.77;;
5674;SDS011;2860;54.284;10.158;2024-02-14T05:27:00;19.35;;;13.82;;
5674;SDS011;2860;54.284;10.158;2024-02-14T05:29:25;21.08;;;14.07;;
5674;SDS011;2860;54.284;10.158;2024-02-14T05:31:51;17.88;;;13.80;;
5674;SDS011;2860;54.284;10.158;2024-02-14T05:34:20;21.08;;;13.45;;
5674;SDS011;2860;54.284;10.158;2024-02-14T05:36:46;25.98;;;15.65;;
5674;SDS011;2860;54.284;10.158;2024-02-14T05:39:11;19.48;;;14.20;;
5674;SDS011;2860;54.284;10.158;2024-02-14T05:41:37;22.85;;;14.50;;
5674;SDS011;2860;54.284;10.158;2024-02-14T05:44:03;24.95;;;13.10;;
5674;SDS011;2860;54.284;10.158;2024-02-14T05:46:29;18.67;;;14.52;;
5674;SDS011;2860;54.284;10.158;2024-02-14T05:48:54;20.58;;;14.82;;
5674;SDS011;2860;54.284;10.158;2024-02-14T05:51:22;30.42;;;15.30;;
5674;SDS011;2860;54.284;10.158;2024-02-14T05:53:48;20.55;;;13.27;;
5674;SDS011;2860;54.284;10.158;2024-02-14T05:56:13;20.42;;;13.10;;
5674;SDS011;2860;54.284;10.158;2024-02-14T05:58:39;19.50;;;12.93;;
5674;SDS011;2860;54.284;10.158;2024-02-14T06:01:04;21.23;;;11.65;;
5674;SDS011;2860;54.284;10.158;2024-02-14T06:03:31;19.90;;;12.95;;
5674;SDS011;2860;54.284;10.158;2024-02-14T06:05:56;17.23;;;12.50;;
5674;SDS011;2860;54.284;10.158;2024-02-14T06:08:22;24.88;;;13.48;;
5674;SDS011;2860;54.284;10.158;2024-02-14T06:10:48;18.88;;;13.10;;
5674;SDS011;2860;54.284;10.158;2024-02-14T06:13:14;17.63;;;13.27;;
5674;SDS011;2860;54.284;10.158;2024-02-14T06:15:40;17.80;;;12.45;;
5674;SDS011;2860;54.284;10.158;2024-02-14T06:18:05;19.58;;;13.38;;
5674;SDS011;2860;54.284;10.158;2024-02-14T06:20:31;18.63;;;11.98;;
5674;SDS011;2860;54.284;10.158;2024-02-14T06:22:57;19.08;;;12.95;;
5674;SDS011;2860;54.284;10.158;2024-02-14T06:25:22;17.17;;;12.50;;
5674;SDS011;2860;54.284;10.158;2024-02-14T06:27:48;17.17;;;13.23;;
5674;SDS011;2860;54.284;10.158;2024-02-14T06:30:13;17.90;;;12.55;;
5674;SDS011;2860;54.284;10.158;2024-02-14T06:32:39;16.70;;;11.35;;
5674;SDS011;2860;54.284;10.158;2024-02-14T06:35:05;16.15;;;13.15;;
5674;SDS011;2860;54.284;10.158;2024-02-14T06:37:30;16.23;;;11.20;;
5674;SDS011;2860;54.284;10.158;2024-02-14T06:39:56;17.95;;;13.27;;
5674;SDS011;2860;54.284;10.158;2024-02-14T06:42:21;15.18;;;12.85;;
5674;SDS011;2860;54.284;10.158;2024-02-14T06:44:48;16.45;;;11.88;;
5674;SDS011;2860;54.284;10.158;2024-02-14T06:47:14;15.25;;;11.77;;
5674;SDS011;2860;54.284;10.158;2024-02-14T06:49:40;21.20;;;10.80;;
5674;SDS011;2860;54.284;10.158;2024-02-14T06:52:05;17.52;;;12.00;;
5674;SDS011;2860;54.284;10.158;2024-02-14T06:54:31;18.88;;;11.55;;
5674;SDS011;2860;54.284;10.158;2024-02-14T06:56:56;17.25;;;11.98;;
5674;SDS011;2860;54.284;10.158;2024-02-14T06:59:22;14.23;;;11.85;;
5674;SDS011;2860;54.284;10.158;2024-02-14T07:01:48;17.50;;;13.93;;
5674;SDS011;2860;54.284;10.158;2024-02-14T07:04:13;18.20;;;11.80;;
5674;SDS011;2860;54.284;10.158;2024-02-14T07:06:39;15.45;;;12.02;;
5674;SDS011;2860;54.284;10.158;2024-02-14T07:09:04;13.55;;;11.73;;
5674;SDS011;2860;54.284;10.158;2024-02-14T07:11:31;14.38;;;12.02;;
5674;SDS011;2860;54.284;10.158;2024-02-14T07:13:56;17.77;;;12.00;;
5674;SDS011;2860;54.284;10.158;2024-02-14T07:16:22;15.23;;;12.15;;
5674;SDS011;2860;54.284;10.158;2024-02-14T07:18:49;18.83;;;11.80;;
5674;SDS011;2860;54.284;10.158;2024-02-14T07:21:14;17.88;;;11.77;;
5674;SDS011;2860;54.284;10.158;2024-02-14T07:23:40;15.38;;;11.23;;
5674;SDS011;2860;54.284;10.158;2024-02-14T07:26:05;15.48;;;12.32;;
5674;SDS011;2860;54.284;10.158;2024-02-14T07:28:31;15.65;;;12.05;;
5674;SDS011;2860;54.284;10.158;2024-02-14T07:30:57;16.92;;;11.70;;
5674;SDS011;2860;54.284;10.158;2024-02-14T07:33:22;16.90;;;12.63;;
5674;SDS011;2860;54.284;10.158;2024-02-14T07:35:48;16.15;;;11.70;;
5674;SDS011;2860;54.284;10.158;2024-02-14T07:38:14;13.15;;;11.82;;
5674;SDS011;2860;54.284;10.158;2024-02-14T07:40:41;15.90;;;12.32;;
5674;SDS011;2860;54.284;10.158;2024-02-14T07:43:07;15.85;;;11.57;;
5674;SDS011;2860;54.284;10.158;2024-02-14T07:45:32;15.48;;;11.93;;
5674;SDS011;2860;54.284;10.158;2024-02-14T07:47:58;11.77;;;10.38;;
5674;SDS011;2860;54.284;10.158;2024-02-14T07:50:24;16.35;;;12.43;;
5674;SDS011;2860;54.284;10.158;2024-02-14T07:52:49;16.45;;;11.75;;
5674;SDS011;2860;54.284;10.158;2024-02-14T07:55:15;125.10;;;64.90;;
5674;SDS011;2860;54.284;10.158;2024-02-14T07:57:41;14.57;;;12.32;;
5674;SDS011;2860;54.284;10.158;2024-02-14T08:00:07;16.35;;;13.52;;
5674;SDS011;2860;54.284;10.158;2024-02-14T08:02:47;15.85;;;11.25;;
5674;SDS011;2860;54.284;10.158;2024-02-14T08:05:16;13.13;;;11.73;;
5674;SDS011;2860;54.284;10.158;2024-02-14T08:07:41;15.65;;;11.68;;
5674;SDS011;2860;54.284;10.158;2024-02-14T08:10:07;14.15;;;11.60;;
5674;SDS011;2860;54.284;10.158;2024-02-14T08:12:33;15.70;;;11.63;;
5674;SDS011;2860;54.284;10.158;2024-02-14T08:14:59;14.77;;;11.18;;
5674;SDS011;2860;54.284;10.158;2024-02-14T08:17:29;16.50;;;10.27;;
5674;SDS011;2860;54.284;10.158;2024-02-14T08:19:55;15.02;;;12.40;;
5674;SDS011;2860;54.284;10.158;2024-02-14T08:22:20;15.63;;;11.13;;
5674;SDS011;2860;54.284;10.158;2024-02-14T08:24:46;14.85;;;12.45;;
5674;SDS011;2860;54.284;10.158;2024-02-14T08:27:11;16.60;;;11.40;;
5674;SDS011;2860;54.284;10.158;2024-02-14T08:29:37;16.42;;;11.50;;
5674;SDS011;2860;54.284;10.158;2024-02-14T08:32:02;16.20;;;12.00;;
5674;SDS011;2860;54.284;10.158;2024-02-14T08:34:30;13.15;;;11.68;;
5674;SDS011;2860;54.284;10.158;2024-02-14T08:36:55;13.20;;;10.98;;
5674;SDS011;2860;54.284;10.158;2024-02-14T08:39:21;17.55;;;12.35;;
5674;SDS011;2860;54.284;10.158;2024-02-14T08:41:46;15.98;;;12.73;;
5674;SDS011;2860;54.284;10.158;2024-02-14T08:44:12;16.02;;;13.65;;
5674;SDS011;2860;54.284;10.158;2024-02-14T08:46:38;16.88;;;14.60;;
5674;SDS011;2860;54.284;10.158;2024-02-14T08:49:04;15.48;;;12.98;;
5674;SDS011;2860;54.284;10.158;2024-02-14T08:51:34;19.15;;;13.07;;
5674;SDS011;2860;54.284;10.158;2024-02-14T08:54:00;14.10;;;12.70;;
5674;SDS011;2860;54.284;10.158;2024-02-14T08:56:29;17.58;;;12.48;;
5674;SDS011;2860;54.284;10.158;2024-02-14T08:59:01;15.75;;;13.10;;
5674;SDS011;2860;54.284;10.158;2024-02-14T09:01:27;17.88;;;13.07;;
5674;SDS011;2860;54.284;10.158;2024-02-14T09:03:56;16.08;;;12.63;;
5674;SDS011;2860;54.284;10.158;2024-02-14T09:06:22;17.17;;;12.35;;
5674;SDS011;2860;54.284;10.158;2024-02-14T09:08:47;17.13;;;12.82;;
5674;SDS011;2860;54.284;10.158;2024-02-14T09:11:13;14.15;;;12.48;;
5674;SDS011;2860;54.284;10.158;2024-02-14T09:13:39;20.00;;;11.98;;
5674;SDS011;2860;54.284;10.158;2024-02-14T09:16:10;14.93;;;12.38;;
5674;SDS011;2860;54.284;10.158;2024-02-14T09:18:36;13.00;;;11.45;;
5674;SDS011;2860;54.284;10.158;2024-02-14T09:21:02;13.75;;;11.05;;
5674;SDS011;2860;54.284;10.158;2024-02-14T09:23:30;11.48;;;10.25;;
5674;SDS011;2860;54.284;10.158;2024-02-14T09:25:57;11.77;;;10.57;;
5674;SDS011;2860;54.284;10.158;2024-02-14T09:28:23;11.32;;;10.27;;
5674;SDS011;2860;54.284;10.158;2024-02-14T09:30:48;10.90;;;9.45;;
5674;SDS011;2860;54.284;10.158;2024-02-14T09:33:14;11.75;;;10.65;;
5674;SDS011;2860;54.284;10.158;2024-02-14T09:35:39;10.75;;;9.63;;
5674;SDS011;2860;54.284;10.158;2024-02-14T09:38:09;10.48;;;9.57;;
5674;SDS011;2860;54.284;10.158;2024-02-14T09:40:40;11.05;;;9.75;;
5674;SDS011;2860;54.284;10.158;2024-02-14T09:43:08;10.23;;;9.15;;
5674;SDS011;2860;54.284;10.158;2024-02-14T09:45:57;12.88;;;8.70;;
5674;SDS011;2860;54.284;10.158;2024-02-14T09:48:23;9.93;;;9.02;;
5674;SDS011;2860;54.284;10.158;2024-02-14T09:50:49;11.10;;;9.65;;
5674;SDS011;2860;54.284;10.158;2024-02-14T09:53:18;10.32;;;9.32;;
5674;SDS011;2860;54.284;10.158;2024-02-14T09:55:45;10.05;;;9.20;;
5674;SDS011;2860;54.284;10.158;2024-02-14T09:58:11;10.82;;;9.80;;
5674;SDS011;2860;54.284;10.158;2024-02-14T10:00:37;9.35;;;8.55;;
5674;SDS011;2860;54.284;10.158;2024-02-14T10:03:03;10.52;;;9.43;;
5674;SDS011;2860;54.284;10.158;2024-02-14T10:05:29;10.55;;;9.55;;
5674;SDS011;2860;54.284;10.158;2024-02-14T10:07:56;11.90;;;10.85;;
5674;SDS011;2860;54.284;10.158;2024-02-14T10:10:22;11.05;;;10.05;;
5674;SDS011;2860;54.284;10.158;2024-02-14T10:12:48;11.73;;;10.35;;
5674;SDS011;2860;54.284;10.158;2024-02-14T10:15:14;11.73;;;10.60;;
5674;SDS011;2860;54.284;10.158;2024-02-14T10:17:39;11.48;;;10.45;;
5674;SDS011;2860;54.284;10.158;2024-02-14T10:20:08;13.73;;;11.05;;
5674;SDS011;2860;54.284;10.158;2024-02-14T10:22:34;15.27;;;12.20;;
5674;SDS011;2860;54.284;10.158;2024-02-14T10:25:01;12.27;;;11.05;;
5674;SDS011;2860;54.284;10.158;2024-02-14T10:27:29;13.43;;;10.65;;
5674;SDS011;2860;54.284;10.158;2024-02-14T10:29:59;12.40;;;11.20;;
5674;SDS011;2860;54.284;10.158;2024-02-14T10:32:24;14.77;;;11.23;;
5674;SDS011;2860;54.284;10.158;2024-02-14T10:34:50;13.15;;;11.70;;
5674;SDS011;2860;54.284;10.158;2024-02-14T10:37:16;17.05;;;12.52;;
5674;SDS011;2860;54.284;10.158;2024-02-14T10:39:43;15.32;;;12.93;;
5674;SDS011;2860;54.284;10.158;2024-02-14T10:42:11;13.27;;;11.52;;
5674;SDS011;2860;54.284;10.158;2024-02-14T10:44:38;13.95;;;12.45;;
5674;SDS011;2860;54.284;10.158;2024-02-14T10:47:04;14.63;;;13.07;;
5674;SDS011;2860;54.284;10.158;2024-02-14T10:49:35;16.95;;;13.52;;
5674;SDS011;2860;54.284;10.158;2024-02-14T10:52:02;14.07;;;12.63;;
5674;SDS011;2860;54.284;10.158;2024-02-14T10:54:32;14.52;;;13.15;;
5674;SDS011;2860;54.284;10.158;2024-02-14T10:57:01;18.10;;;13.73;;
5674;SDS011;2860;54.284;10.158;2024-02-14T10:59:32;16.73;;;14.20;;
5674;SDS011;2860;54.284;10.158;2024-02-14T11:02:00;14.70;;;12.52;;
5674;SDS011;2860;54.284;10.158;2024-02-14T11:04:26;16.70;;;14.02;;
5674;SDS011;2860;54.284;10.158;2024-02-14T11:06:52;15.05;;;13.57;;
5674;SDS011;2860;54.284;10.158;2024-02-14T11:09:22;16.38;;;14.63;;
5674;SDS011;2860;54.284;10.158;2024-02-14T11:12:02;18.50;;;13.93;;
5674;SDS011;2860;54.284;10.158;2024-02-14T11:14:32;18.20;;;13.93;;
5674;SDS011;2860;54.284;10.158;2024-02-14T11:17:00;15.30;;;13.70;;
5674;SDS011;2860;54.284;10.158;2024-02-14T11:19:32;17.90;;;14.95;;
5674;SDS011;2860;54.284;10.158;2024-02-14T11:22:09;15.38;;;13.52;;
5674;SDS011;2860;54.284;10.158;2024-02-14T11:24:42;16.38;;;14.68;;
5674;SDS011;2860;54.284;10.158;2024-02-14T11:27:11;17.08;;;14.50;;
5674;SDS011;2860;54.284;10.158;2024-02-14T11:29:38;15.35;;;13.85;;
5674;SDS011;2860;54.284;10.158;2024-02-14T11:32:06;14.85;;;13.32;;
5674;SDS011;2860;54.284;10.158;2024-02-14T11:34:33;18.08;;;13.98;;
5674;SDS011;2860;54.284;10.158;2024-02-14T11:36:59;17.35;;;13.93;;
5674;SDS011;2860;54.284;10.158;2024-02-14T11:39:27;16.83;;;14.40;;
5674;SDS011;2860;54.284;10.158;2024-02-14T11:41:52;16.08;;;12.77;;
5674;SDS011;2860;54.284;10.158;2024-02-14T11:44:23;14.15;;;12.68;;
5674;SDS011;2860;54.284;10.158;2024-02-14T11:46:48;12.10;;;11.00;;
5674;SDS011;2860;54.284;10.158;2024-02-14T11:49:14;13.68;;;12.00;;
5674;SDS011;2860;54.284;10.158;2024-02-14T11:51:41;11.75;;;10.57;;
5674;SDS011;2860;54.284;10.158;2024-02-14T11:54:07;13.20;;;11.82;;
5674;SDS011;2860;54.284;10.158;2024-02-14T11:56:37;11.02;;;10.02;;
5674;SDS011;2860;54.284;10.158;2024-02-14T11:59:04;13.13;;;11.93;;
5674;SDS011;2860;54.284;10.158;2024-02-14T12:01:33;11.18;;;10.07;;
5674;SDS011;2860;54.284;10.158;2024-02-14T12:04:00;12.13;;;10.93;;
5674;SDS011;2860;54.284;10.158;2024-02-14T12:06:33;11.40;;;10.20;;
5674;SDS011;2860;54.284;10.158;2024-02-14T12:09:00;11.23;;;10.13;;
5674;SDS011;2860;54.284;10.158;2024-02-14T12:11:34;14.43;;;10.68;;
5674;SDS011;2860;54.284;10.158;2024-02-14T12:14:05;11.75;;;10.45;;
5674;SDS011;2860;54.284;10.158;2024-02-14T12:16:30;11.48;;;10.35;;
5674;SDS011;2860;54.284;10.158;2024-02-14T12:19:03;11.77;;;10.68;;
5674;SDS011;2860;54.284;10.158;2024-02-14T12:21:32;9.75;;;9.05;;
5674;SDS011;2860;54.284;10.158;2024-02-14T12:24:01;10.10;;;9.15;;
5674;SDS011;2860;54.284;10.158;2024-02-14T12:26:29;8.93;;;8.27;;
5674;SDS011;2860;54.284;10.158;2024-02-14T12:28:56;9.98;;;8.98;;
5674;SDS011;2860;54.284;10.158;2024-02-14T12:31:22;9.18;;;8.55;;
5674;SDS011;2860;54.284;10.158;2024-02-14T12:33:48;9.65;;;8.95;;
5674;SDS011;2860;54.284;10.158;2024-02-14T12:36:15;8.85;;;8.10;;
5674;SDS011;2860;54.284;10.158;2024-02-14T12:38:40;8.15;;;7.65;;
5674;SDS011;2860;54.284;10.158;2024-02-14T12:41:06;9.38;;;8.57;;
5674;SDS011;2860;54.284;10.158;2024-02-14T12:43:31;8.10;;;7.57;;
5674;SDS011;2860;54.284;10.158;2024-02-14T12:45:57;9.65;;;9.00;;
5674;SDS011;2860;54.284;10.158;2024-02-14T12:48:23;7.68;;;7.18;;
5674;SDS011;2860;54.284;10.158;2024-02-14T12:50:53;8.27;;;7.68;;
5674;SDS011;2860;54.284;10.158;2024-02-14T12:53:19;8.32;;;7.72;;
5674;SDS011;2860;54.284;10.158;2024-02-14T12:55:46;11.85;;;7.35;;
5674;SDS011;2860;54.284;10.158;2024-02-14T12:58:11;8.77;;;8.07;;
5674;SDS011;2860;54.284;10.158;2024-02-14T13:00:37;7.35;;;6.80;;
5674;SDS011;2860;54.284;10.158;2024-02-14T13:03:03;6.28;;;5.97;;
5674;SDS011;2860;54.284;10.158;2024-02-14T13:05:29;7.13;;;6.60;;
5674;SDS011;2860;54.284;10.158;2024-02-14T13:07:55;6.97;;;6.32;;
5674;SDS011;2860;54.284;10.158;2024-02-14T13:10:21;6.50;;;6.15;;
5674;SDS011;2860;54.284;10.158;2024-02-14T13:12:47;6.43;;;6.13;;
5674;SDS011;2860;54.284;10.158;2024-02-14T13:15:12;7.25;;;6.70;;
5674;SDS011;2860;54.284;10.158;2024-02-14T13:17:38;6.32;;;5.75;;
5674;SDS011;2860;54.284;10.158;2024-02-14T13:20:03;5.82;;;5.53;;
5674;SDS011;2860;54.284;10.158;2024-02-14T13:22:30;6.85;;;6.43;;
5674;SDS011;2860;54.284;10.158;2024-02-14T13:24:55;5.65;;;5.35;;
5674;SDS011;2860;54.284;10.158;2024-02-14T13:27:21;5.82;;;5.53;;
5674;SDS011;2860;54.284;10.158;2024-02-14T13:29:48;6.70;;;6.07;;
5674;SDS011;2860;54.284;10.158;2024-02-14T13:32:13;5.63;;;5.32;;
5674;SDS011;2860;54.284;10.158;2024-02-14T13:34:39;5.28;;;4.97;;
5674;SDS011;2860;54.284;10.158;2024-02-14T13:37:04;4.65;;;4.45;;
5674;SDS011;2860;54.284;10.158;2024-02-14T13:39:30;5.35;;;5.07;;
5674;SDS011;2860;54.284;10.158;2024-02-14T13:41:56;3.38;;;3.17;;
5674;SDS011;2860;54.284;10.158;2024-02-14T13:44:23;4.20;;;3.88;;
5674;SDS011;2860;54.284;10.158;2024-02-14T13:46:49;4.22;;;3.53;;
5674;SDS011;2860;54.284;10.158;2024-02-14T13:49:15;4.18;;;4.07;;
5674;SDS011;2860;54.284;10.158;2024-02-14T13:51:46;3.97;;;3.78;;
5674;SDS011;2860;54.284;10.158;2024-02-14T13:54:13;3.55;;;3.42;;
5674;SDS011;2860;54.284;10.158;2024-02-14T13:56:39;2.78;;;2.78;;
5674;SDS011;2860;54.284;10.158;2024-02-14T13:59:05;3.17;;;3.08;;
5674;SDS011;2860;54.284;10.158;2024-02-14T14:01:30;3.15;;;2.75;;
5674;SDS011;2860;54.284;10.158;2024-02-14T14:03:56;3.08;;;2.72;;
5674;SDS011;2860;54.284;10.158;2024-02-14T14:06:23;2.60;;;2.50;;
5674;SDS011;2860;54.284;10.158;2024-02-14T14:08:49;2.25;;;2.25;;
5674;SDS011;2860;54.284;10.158;2024-02-14T14:11:15;2.42;;;2.42;;
5674;SDS011;2860;54.284;10.158;2024-02-14T14:13:40;2.50;;;2.50;;
5674;SDS011;2860;54.284;10.158;2024-02-14T14:16:06;12.57;;;3.17;;
5674;SDS011;2860;54.284;10.158;2024-02-14T14:18:31;9.77;;;2.70;;
5674;SDS011;2860;54.284;10.158;2024-02-14T14:20:57;2.70;;;2.60;;
5674;SDS011;2860;54.284;10.158;2024-02-14T14:23:23;2.25;;;2.25;;
5674;SDS011;2860;54.284;10.158;2024-02-14T14:25:49;2.53;;;2.42;;
5674;SDS011;2860;54.284;10.158;2024-02-14T14:28:14;2.25;;;2.25;;
5674;SDS011;2860;54.284;10.158;2024-02-14T14:30:40;2.25;;;2.25;;
5674;SDS011;2860;54.284;10.158;2024-02-14T14:33:06;2.20;;;2.20;;
5674;SDS011;2860;54.284;10.158;2024-02-14T14:35:36;1.67;;;1.67;;
5674;SDS011;2860;54.284;10.158;2024-02-14T14:38:04;2.20;;;2.20;;